Time;durP1;ratioP1;P1;durP2;ratioP2;P2;SDS_P1;SDS_P2;PMS_P1;PMS_P2;Temp;Humidity;BMP_temperature;BMP_pressure;BME280_temperature;BME280_humidity;BME280_pressure;Samples;Min_cycle;Max_cycle;Signal;HPM_P1;HPM_P2
2023/07/30 00:00:40;;;;;;;8.27;4.90;;;17.00;86.90;;;;;;5035239;28;20944;-73
2023/07/30 00:03:06;;;;;;;8.20;4.40;;;17.00;85.30;;;;;;5048355;28;20375;-72
2023/07/30 00:05:32;;;;;;;11.45;4.35;;;16.90;85.00;;;;;;5050777;28;20454;-71
2023/07/30 00:07:57;;;;;;;8.10;4.43;;;16.90;85.80;;;;;;5051640;28;20403;-71
2023/07/30 00:10:23;;;;;;;7.17;5.03;;;16.80;85.10;;;;;;5038781;28;20387;-74
2023/07/30 00:12:48;;;;;;;5.63;4.00;;;16.80;86.70;;;;;;5032238;28;20519;-74
2023/07/30 00:15:14;;;;;;;10.68;4.80;;;16.70;86.30;;;;;;5032221;28;20447;-72
2023/07/30 00:17:39;;;;;;;12.87;4.63;;;16.70;83.90;;;;;;5031495;28;20389;-72
2023/07/30 00:20:07;;;;;;;10.30;4.60;;;16.70;79.50;;;;;;5031581;28;20399;-73
2023/07/30 00:22:33;;;;;;;7.17;3.67;;;16.70;79.70;;;;;;5031166;28;20442;-73
2023/07/30 00:25:00;;;;;;;11.07;3.92;;;16.70;74.80;;;;;;5030459;28;20535;-70
2023/07/30 00:27:26;;;;;;;10.55;4.20;;;16.80;70.40;;;;;;5031574;28;20896;-73
2023/07/30 00:29:51;;;;;;;11.63;4.63;;;16.80;72.00;;;;;;5032178;28;20419;-73
2023/07/30 00:32:17;;;;;;;8.83;4.27;;;16.70;71.80;;;;;;5031676;28;20883;-73
2023/07/30 00:34:43;;;;;;;10.27;4.30;;;16.60;72.60;;;;;;5031705;28;20425;-72
2023/07/30 00:37:09;;;;;;;10.30;4.60;;;16.50;74.60;;;;;;5031667;28;20375;-72
2023/07/30 00:39:35;;;;;;;8.15;4.20;;;16.40;74.40;;;;;;5032266;28;20536;-71
2023/07/30 00:42:00;;;;;;;9.05;4.47;;;16.30;76.40;;;;;;5031004;28;20486;-70
2023/07/30 00:44:26;;;;;;;9.45;5.10;;;16.40;74.00;;;;;;5034906;28;20383;-73
2023/07/30 00:46:52;;;;;;;8.60;4.47;;;16.30;75.80;;;;;;5035365;28;20387;-72
2023/07/30 00:49:17;;;;;;;14.20;5.03;;;16.20;77.40;;;;;;5035506;28;20403;-72
2023/07/30 00:51:44;;;;;;;11.47;4.63;;;16.10;80.10;;;;;;5035975;28;20387;-72
2023/07/30 00:54:10;;;;;;;11.23;4.80;;;16.00;82.30;;;;;;5040440;28;20383;-72
2023/07/30 00:56:36;;;;;;;10.50;5.10;;;16.00;83.20;;;;;;5037558;28;20386;-71
2023/07/30 00:59:02;;;;;;;12.95;4.88;;;15.90;83.30;;;;;;5034850;28;20620;-71
2023/07/30 01:01:33;;;;;;;8.77;4.60;;;15.90;86.50;;;;;;5034260;28;20430;-72
2023/07/30 01:03:58;;;;;;;8.93;4.90;;;15.80;88.60;;;;;;5035122;28;20402;-71
2023/07/30 01:06:24;;;;;;;12.02;5.10;;;15.90;87.80;;;;;;5035284;28;20458;-72
2023/07/30 01:08:49;;;;;;;7.83;4.60;;;15.70;92.40;;;;;;5035155;28;20437;-72
2023/07/30 01:11:16;;;;;;;13.53;4.60;;;15.70;93.80;;;;;;5017757;28;20424;-71
2023/07/30 01:13:42;;;;;;;7.32;4.40;;;15.80;94.30;;;;;;5035632;28;20482;-73
2023/07/30 01:16:08;;;;;;;10.30;5.25;;;15.90;91.80;;;;;;5036771;28;20383;-74
2023/07/30 01:18:34;;;;;;;10.00;5.00;;;16.10;89.70;;;;;;5038844;28;20410;-75
2023/07/30 01:21:00;;;;;;;8.63;5.10;;;16.20;87.50;;;;;;5039719;28;20399;-75
2023/07/30 01:23:26;;;;;;;7.87;5.20;;;16.30;87.70;;;;;;5017141;28;20902;-75
2023/07/30 01:26:17;;;;;;;10.65;5.18;;;16.40;86.80;;;;;;5037565;28;20876;-75
2023/07/30 01:28:49;;;;;;;11.48;4.63;;;16.50;84.40;;;;;;5023057;28;20425;-74
2023/07/30 01:31:16;;;;;;;10.02;4.70;;;16.60;82.70;;;;;;5054939;28;20386;-72
2023/07/30 01:33:43;;;;;;;7.57;4.80;;;16.60;80.90;;;;;;5037709;28;20394;-75
2023/07/30 01:36:14;;;;;;;10.55;5.07;;;16.60;79.70;;;;;;5044018;28;20393;-75
2023/07/30 01:38:41;;;;;;;9.90;4.85;;;16.70;79.80;;;;;;5054102;28;20413;-75
2023/07/30 01:41:07;;;;;;;9.00;4.05;;;16.80;78.80;;;;;;5055663;28;20420;-75
2023/07/30 01:43:32;;;;;;;13.88;4.55;;;16.90;77.70;;;;;;5055940;28;20397;-75
2023/07/30 01:45:58;;;;;;;12.47;4.33;;;17.00;70.90;;;;;;5054741;28;20416;-74
2023/07/30 01:48:23;;;;;;;12.40;4.40;;;17.00;67.60;;;;;;5034831;28;20425;-74
2023/07/30 01:50:49;;;;;;;9.82;4.10;;;17.10;65.80;;;;;;5052709;28;20389;-73
2023/07/30 01:53:15;;;;;;;6.25;3.78;;;17.00;67.20;;;;;;5052616;28;20420;-73
2023/07/30 01:55:43;;;;;;;9.37;4.10;;;16.90;67.40;;;;;;5052068;28;20377;-76
2023/07/30 01:58:09;;;;;;;5.28;3.72;;;17.00;66.40;;;;;;5053013;28;20943;-74
2023/07/30 02:00:35;;;;;;;8.48;4.20;;;16.80;65.20;;;;;;5052668;28;20906;-74
2023/07/30 02:03:01;;;;;;;9.13;4.20;;;16.70;66.70;;;;;;5034405;28;20393;-74
2023/07/30 02:05:26;;;;;;;13.00;4.57;;;16.60;69.10;;;;;;5034707;28;20409;-76
2023/07/30 02:07:52;;;;;;;8.00;3.80;;;16.40;70.80;;;;;;5052472;28;20408;-73
2023/07/30 02:10:17;;;;;;;13.52;4.30;;;16.20;72.90;;;;;;5052616;28;20382;-73
2023/07/30 02:12:43;;;;;;;12.20;4.70;;;16.10;73.70;;;;;;5052244;28;20389;-73
2023/07/30 02:15:09;;;;;;;11.23;4.70;;;16.10;74.60;;;;;;5052543;28;20484;-73
2023/07/30 02:17:34;;;;;;;12.07;4.70;;;16.10;75.10;;;;;;5052662;28;20392;-74
2023/07/30 02:20:00;;;;;;;10.75;4.20;;;16.10;73.90;;;;;;5052462;28;20385;-74
2023/07/30 02:22:25;;;;;;;7.40;3.87;;;16.10;73.10;;;;;;5052343;28;20484;-74
2023/07/30 02:24:51;;;;;;;9.90;4.68;;;16.30;71.00;;;;;;5052412;28;20413;-75
2023/07/30 02:27:16;;;;;;;11.75;4.85;;;16.30;70.90;;;;;;5034247;28;20475;-74
2023/07/30 02:29:42;;;;;;;8.13;4.40;;;16.40;68.40;;;;;;5052173;28;20407;-74
2023/07/30 02:32:08;;;;;;;7.78;4.10;;;16.50;67.60;;;;;;5052127;28;20420;-74
2023/07/30 02:34:33;;;;;;;14.10;4.43;;;16.40;68.40;;;;;;5052395;28;20381;-74
2023/07/30 02:36:59;;;;;;;14.10;4.33;;;16.20;69.60;;;;;;5034511;28;20385;-75
2023/07/30 02:39:24;;;;;;;12.00;4.32;;;16.20;69.90;;;;;;5052402;28;20425;-74
2023/07/30 02:41:50;;;;;;;13.90;4.30;;;16.10;69.50;;;;;;5052245;28;20389;-76
2023/07/30 02:44:15;;;;;;;11.50;4.40;;;16.10;70.30;;;;;;5052647;28;20393;-74
2023/07/30 02:46:41;;;;;;;10.45;4.05;;;16.10;69.40;;;;;;5052493;28;20460;-74
2023/07/30 02:49:08;;;;;;;14.18;4.88;;;16.10;69.20;;;;;;5052135;28;20401;-74
2023/07/30 02:51:33;;;;;;;9.80;4.93;;;16.00;70.00;;;;;;5052346;28;20421;-75
2023/07/30 02:54:04;;;;;;;9.03;4.13;;;15.90;71.90;;;;;;5052305;28;20728;-74
2023/07/30 02:56:30;;;;;;;9.75;4.28;;;15.80;71.90;;;;;;5051850;28;20378;-74
2023/07/30 02:58:55;;;;;;;14.20;5.00;;;15.70;74.30;;;;;;5051700;28;20496;-74
2023/07/30 03:01:21;;;;;;;10.85;4.70;;;15.70;76.10;;;;;;5051643;28;20412;-74
2023/07/30 03:03:46;;;;;;;12.50;4.63;;;15.60;77.40;;;;;;5051673;28;20393;-75
2023/07/30 03:06:12;;;;;;;10.70;4.37;;;15.60;78.30;;;;;;5051453;28;20392;-73
2023/07/30 03:08:38;;;;;;;11.80;4.63;;;15.50;80.10;;;;;;5051629;28;20535;-74
2023/07/30 03:11:04;;;;;;;8.87;4.33;;;15.60;79.10;;;;;;5051303;28;20513;-72
2023/07/30 03:13:29;;;;;;;11.77;4.60;;;15.60;78.60;;;;;;5050639;28;20489;-74
2023/07/30 03:15:55;;;;;;;10.75;4.72;;;15.50;78.60;;;;;;5050987;28;20406;-75
2023/07/30 03:18:20;;;;;;;13.05;4.70;;;15.40;80.40;;;;;;5050794;28;20464;-75
2023/07/30 03:20:46;;;;;;;9.40;4.90;;;15.50;80.90;;;;;;5050272;28;20746;-74
2023/07/30 03:23:11;;;;;;;16.10;4.80;;;15.50;79.10;;;;;;5050421;28;20491;-75
2023/07/30 03:25:37;;;;;;;15.60;4.70;;;15.50;78.30;;;;;;5050342;28;20385;-73
2023/07/30 03:28:03;;;;;;;10.00;4.30;;;15.60;77.30;;;;;;5050184;28;20437;-75
2023/07/30 03:30:28;;;;;;;11.02;4.30;;;15.70;72.30;;;;;;5050409;28;20378;-73
2023/07/30 03:32:54;;;;;;;14.47;5.33;;;15.70;73.20;;;;;;5050083;28;20377;-73
2023/07/30 03:35:19;;;;;;;17.73;4.80;;;15.80;71.10;;;;;;5050249;28;20455;-73
2023/07/30 03:37:45;;;;;;;12.30;4.43;;;15.90;69.10;;;;;;5050527;28;20473;-73
2023/07/30 03:40:10;;;;;;;14.60;5.38;;;15.80;67.80;;;;;;5032482;28;20432;-73
2023/07/30 03:42:36;;;;;;;11.70;4.93;;;15.70;70.40;;;;;;5032092;28;20478;-73
2023/07/30 03:45:02;;;;;;;13.77;5.20;;;15.80;69.60;;;;;;5050355;28;20381;-73
2023/07/30 03:47:27;;;;;;;13.60;5.50;;;15.80;69.10;;;;;;5050034;28;20378;-73
2023/07/30 03:49:53;;;;;;;11.15;4.38;;;15.80;69.40;;;;;;5050006;28;20451;-74
2023/07/30 03:52:18;;;;;;;10.95;4.72;;;15.80;67.80;;;;;;5049753;28;20393;-72
2023/07/30 03:54:44;;;;;;;13.87;4.80;;;15.80;69.30;;;;;;5050015;28;20426;-74
2023/07/30 03:57:09;;;;;;;12.20;4.50;;;15.80;69.40;;;;;;5049932;28;20409;-74
2023/07/30 03:59:35;;;;;;;9.90;4.10;;;16.00;66.80;;;;;;5050031;28;20385;-74
2023/07/30 04:02:00;;;;;;;10.93;4.40;;;16.00;66.90;;;;;;5049924;28;20388;-74
2023/07/30 04:04:26;;;;;;;12.40;4.37;;;16.10;66.60;;;;;;5050148;28;20850;-74
2023/07/30 04:06:51;;;;;;;11.07;4.20;;;16.20;65.00;;;;;;5050014;28;20770;-74
2023/07/30 04:09:17;;;;;;;15.27;4.40;;;16.30;59.80;;;;;;5049872;28;20405;-73
2023/07/30 04:11:42;;;;;;;11.97;4.37;;;16.50;59.50;;;;;;5049770;28;20377;-73
2023/07/30 04:14:08;;;;;;;12.47;3.80;;;16.50;60.40;;;;;;5050289;28;20508;-74
2023/07/30 04:16:34;;;;;;;13.70;4.40;;;16.60;58.50;;;;;;5049849;28;20396;-74
2023/07/30 04:19:00;;;;;;;12.23;4.03;;;16.70;58.20;;;;;;5053360;28;20385;-74
2023/07/30 04:21:25;;;;;;;10.73;4.30;;;16.90;56.10;;;;;;5053733;28;20755;-74
2023/07/30 04:23:51;;;;;;;12.73;3.90;;;16.90;56.10;;;;;;5053842;28;20424;-73
2023/07/30 04:26:17;;;;;;;16.30;4.30;;;17.00;55.00;;;;;;5053882;28;20377;-74
2023/07/30 04:28:43;;;;;;;14.80;4.32;;;17.00;53.40;;;;;;5053588;28;20408;-74
2023/07/30 04:31:09;;;;;;;11.82;3.70;;;17.00;54.60;;;;;;5053569;28;20447;-74
2023/07/30 04:33:34;;;;;;;10.20;3.95;;;17.10;54.90;;;;;;5053488;28;20381;-74
2023/07/30 04:36:00;;;;;;;12.63;4.30;;;17.10;54.70;;;;;;5053698;28;20384;-75
2023/07/30 04:38:25;;;;;;;19.50;4.78;;;17.20;53.90;;;;;;5053718;28;20382;-75
2023/07/30 04:40:51;;;;;;;12.45;4.25;;;17.20;53.70;;;;;;5053488;28;20750;-75
2023/07/30 04:43:17;;;;;;;14.20;4.60;;;17.20;53.60;;;;;;5053430;28;20381;-73
2023/07/30 04:45:42;;;;;;;13.10;3.85;;;17.30;54.10;;;;;;5053398;28;20382;-73
2023/07/30 04:48:08;;;;;;;10.63;4.30;;;17.50;52.90;;;;;;5053244;28;20412;-74
2023/07/30 04:50:34;;;;;;;9.95;3.63;;;17.40;54.30;;;;;;5053384;28;20396;-74
2023/07/30 04:53:00;;;;;;;13.48;4.28;;;17.50;53.30;;;;;;5053251;28;20761;-74
2023/07/30 04:55:25;;;;;;;8.05;3.70;;;17.50;52.40;;;;;;5053196;28;20385;-74
2023/07/30 04:57:51;;;;;;;10.37;3.50;;;17.40;52.70;;;;;;5052967;28;20859;-74
2023/07/30 05:00:16;;;;;;;9.63;3.60;;;17.40;53.30;;;;;;5053185;28;20413;-75
2023/07/30 05:02:42;;;;;;;14.60;3.47;;;17.40;53.00;;;;;;5052767;28;20397;-73
2023/07/30 05:05:08;;;;;;;17.52;3.83;;;17.50;51.90;;;;;;5035291;28;20385;-74
2023/07/30 05:07:33;;;;;;;11.38;3.30;;;17.50;52.00;;;;;;5052999;28;20390;-74
2023/07/30 05:09:59;;;;;;;10.67;3.60;;;17.50;52.10;;;;;;5053211;28;20421;-75
2023/07/30 05:12:24;;;;;;;13.30;3.70;;;17.50;51.10;;;;;;5053154;28;20909;-74
2023/07/30 05:14:50;;;;;;;10.25;3.28;;;17.40;50.80;;;;;;5052923;28;20743;-74
2023/07/30 05:17:15;;;;;;;9.30;2.67;;;17.40;52.60;;;;;;5052897;28;20750;-74
2023/07/30 05:19:41;;;;;;;8.90;2.90;;;17.30;50.90;;;;;;5052820;28;20455;-75
2023/07/30 05:22:07;;;;;;;8.90;2.92;;;17.40;48.90;;;;;;5052552;28;20476;-74
2023/07/30 05:24:33;;;;;;;8.40;2.63;;;17.40;48.70;;;;;;5052738;28;20389;-74
2023/07/30 05:26:59;;;;;;;11.30;2.88;;;17.30;48.60;;;;;;5052633;28;20492;-73
2023/07/30 05:29:25;;;;;;;6.60;2.40;;;17.40;48.30;;;;;;5052215;28;20559;-74
2023/07/30 05:31:50;;;;;;;7.68;2.40;;;17.30;47.80;;;;;;5052452;28;20378;-73
2023/07/30 05:34:16;;;;;;;12.27;2.60;;;17.30;47.80;;;;;;5052219;28;20390;-74
2023/07/30 05:36:41;;;;;;;11.10;2.40;;;17.20;48.60;;;;;;5052426;28;20897;-74
2023/07/30 05:39:10;;;;;;;9.80;2.22;;;17.20;50.00;;;;;;5034910;28;20385;-74
2023/07/30 05:41:36;;;;;;;8.95;2.60;;;17.30;49.20;;;;;;5052486;28;20889;-73
2023/07/30 05:44:01;;;;;;;8.83;2.27;;;17.50;48.10;;;;;;5052807;28;20393;-74
2023/07/30 05:46:27;;;;;;;8.67;2.40;;;17.50;47.50;;;;;;5052372;28;20476;-74
2023/07/30 05:48:52;;;;;;;9.23;2.53;;;17.40;48.50;;;;;;5052343;28;20408;-74
2023/07/30 05:51:18;;;;;;;11.10;2.40;;;17.40;47.70;;;;;;5051977;28;20392;-75
2023/07/30 05:53:43;;;;;;;8.70;2.47;;;17.50;47.80;;;;;;5052162;28;20749;-73
2023/07/30 05:56:10;;;;;;;12.20;3.00;;;17.50;48.40;;;;;;5052362;28;20391;-74
2023/07/30 05:58:36;;;;;;;11.77;2.80;;;17.40;48.00;;;;;;5052227;28;20932;-72
2023/07/30 06:01:01;;;;;;;7.90;2.60;;;17.40;48.70;;;;;;5051806;28;20385;-73
2023/07/30 06:03:27;;;;;;;8.00;2.57;;;17.50;48.40;;;;;;5051950;28;20389;-73
2023/07/30 06:05:52;;;;;;;12.13;2.90;;;17.60;48.00;;;;;;5051964;28;20416;-74
2023/07/30 06:08:18;;;;;;;9.18;2.60;;;17.70;47.20;;;;;;5051476;28;20413;-73
2023/07/30 06:10:44;;;;;;;8.20;2.80;;;17.80;47.00;;;;;;5051898;28;20387;-73
2023/07/30 06:13:10;;;;;;;7.00;2.50;;;17.70;47.00;;;;;;5051778;28;20431;-75
2023/07/30 06:15:35;;;;;;;7.13;2.23;;;17.70;47.60;;;;;;5051531;28;20460;-74
2023/07/30 06:18:02;;;;;;;16.58;3.00;;;17.80;47.30;;;;;;5051427;28;20381;-74
2023/07/30 06:20:28;;;;;;;11.23;2.60;;;17.70;47.30;;;;;;5051520;28;20381;-74
2023/07/30 06:22:53;;;;;;;11.98;2.60;;;17.80;47.50;;;;;;5051300;28;20472;-74
2023/07/30 06:25:19;;;;;;;9.03;2.40;;;17.80;46.80;;;;;;5051732;28;20810;-73
2023/07/30 06:27:44;;;;;;;11.63;2.70;;;18.00;45.40;;;;;;5051528;28;21221;-74
2023/07/30 06:30:10;;;;;;;12.63;2.97;;;18.10;44.70;;;;;;5033548;28;20408;-74
2023/07/30 06:32:36;;;;;;;7.22;2.17;;;18.10;44.20;;;;;;5051296;28;20719;-74
2023/07/30 06:35:02;;;;;;;12.55;2.50;;;18.00;44.80;;;;;;5051450;28;20391;-74
2023/07/30 06:37:28;;;;;;;11.57;2.30;;;18.00;45.50;;;;;;5051004;28;20415;-73
2023/07/30 06:39:54;;;;;;;9.32;2.60;;;18.00;44.20;;;;;;5050751;28;20780;-74
2023/07/30 06:42:19;;;;;;;9.40;2.53;;;18.10;44.40;;;;;;5051279;28;20389;-75
2023/07/30 06:44:45;;;;;;;9.93;2.50;;;18.10;44.60;;;;;;5051237;28;20885;-74
2023/07/30 06:47:10;;;;;;;10.87;2.63;;;18.10;44.50;;;;;;5051299;28;20385;-74
2023/07/30 06:49:36;;;;;;;8.05;2.40;;;18.10;44.60;;;;;;5051247;28;20436;-73
2023/07/30 06:52:02;;;;;;;7.18;2.17;;;18.20;44.10;;;;;;5051332;28;20373;-74
2023/07/30 06:54:29;;;;;;;9.80;2.63;;;18.20;43.90;;;;;;5051687;28;20410;-73
2023/07/30 06:56:55;;;;;;;7.75;2.30;;;18.30;44.10;;;;;;5052380;28;20543;-74
2023/07/30 06:59:20;;;;;;;11.55;2.80;;;18.40;43.30;;;;;;5054647;28;20401;-75
2023/07/30 07:01:46;;;;;;;9.73;2.20;;;18.60;43.10;;;;;;5057875;28;20394;-74
2023/07/30 07:04:11;;;;;;;9.53;2.30;;;18.70;42.20;;;;;;5056767;28;20385;-74
2023/07/30 07:06:37;;;;;;;12.15;2.83;;;18.80;42.50;;;;;;5058023;28;20454;-73
2023/07/30 07:09:03;;;;;;;9.80;2.60;;;18.90;41.50;;;;;;5055472;28;20409;-74
2023/07/30 07:11:28;;;;;;;11.17;3.20;;;18.90;42.00;;;;;;5051652;28;20454;-73
2023/07/30 07:13:54;;;;;;;7.80;2.40;;;18.90;41.30;;;;;;5051743;28;20416;-75
2023/07/30 07:16:19;;;;;;;11.07;2.50;;;18.90;41.50;;;;;;5053257;28;20388;-74
2023/07/30 07:18:45;;;;;;;9.53;2.60;;;18.90;40.70;;;;;;5052290;28;20428;-74
2023/07/30 07:21:11;;;;;;;10.73;2.80;;;18.90;41.50;;;;;;5055846;28;20484;-74
2023/07/30 07:23:36;;;;;;;9.55;2.55;;;19.00;40.80;;;;;;5057355;28;20473;-74
2023/07/30 07:26:02;;;;;;;15.37;3.27;;;19.10;41.70;;;;;;5060719;28;20404;-75
2023/07/30 07:28:27;;;;;;;11.27;2.70;;;19.10;40.40;;;;;;5067407;28;20423;-73
2023/07/30 07:30:54;;;;;;;11.85;3.10;;;19.20;40.20;;;;;;5066904;28;20866;-74
2023/07/30 07:33:20;;;;;;;8.55;2.80;;;19.20;40.30;;;;;;5055264;28;20543;-72
2023/07/30 07:35:46;;;;;;;14.38;2.92;;;19.30;40.10;;;;;;5054683;28;20389;-74
2023/07/30 07:38:11;;;;;;;16.23;3.28;;;19.50;39.20;;;;;;5052681;28;20766;-73
2023/07/30 07:40:41;;;;;;;9.60;2.73;;;19.60;38.80;;;;;;5032506;28;20889;-74
2023/07/30 07:43:08;;;;;;;11.88;3.22;;;19.60;38.20;;;;;;5050138;28;20385;-75
2023/07/30 07:45:33;;;;;;;11.55;2.80;;;19.80;38.10;;;;;;5050530;28;20381;-74
2023/07/30 07:47:59;;;;;;;14.95;3.10;;;19.90;37.70;;;;;;5050097;28;20384;-75
2023/07/30 07:50:25;;;;;;;12.30;2.67;;;19.90;37.70;;;;;;5050513;28;20451;-75
2023/07/30 07:52:50;;;;;;;14.18;3.65;;;19.80;38.20;;;;;;5051743;28;20451;-73
2023/07/30 07:55:16;;;;;;;12.48;3.20;;;20.00;37.30;;;;;;5054384;28;20408;-74
2023/07/30 07:57:42;;;;;;;12.70;3.30;;;19.80;37.70;;;;;;5036316;28;20428;-75
2023/07/30 08:00:08;;;;;;;13.10;3.30;;;19.60;38.20;;;;;;5054468;28;20799;-74
2023/07/30 08:02:34;;;;;;;11.25;3.30;;;19.60;38.40;;;;;;5053947;28;20385;-74
2023/07/30 08:05:00;;;;;;;18.77;3.60;;;19.50;38.70;;;;;;5054329;28;20935;-73
2023/07/30 08:07:25;;;;;;;9.68;3.22;;;19.50;39.30;;;;;;5053950;28;20937;-75
2023/07/30 08:09:51;;;;;;;14.50;3.50;;;19.60;38.30;;;;;;5054206;28;20405;-75
2023/07/30 08:12:19;;;;;;;10.93;3.23;;;19.70;38.50;;;;;;5054279;28;20560;-75
2023/07/30 08:14:44;;;;;;;18.38;3.50;;;19.70;38.20;;;;;;5036260;28;20408;-73
2023/07/30 08:17:10;;;;;;;12.93;3.50;;;20.00;37.60;;;;;;5053954;28;20397;-73
2023/07/30 08:19:35;;;;;;;13.87;3.30;;;19.90;38.00;;;;;;5053995;28;20538;-74
2023/07/30 08:22:01;;;;;;;14.52;3.85;;;19.80;38.80;;;;;;5053897;28;20463;-74
2023/07/30 08:24:26;;;;;;;13.20;3.70;;;19.90;37.60;;;;;;5053833;28;20408;-74
2023/07/30 08:26:52;;;;;;;15.70;3.88;;;19.90;37.30;;;;;;5053951;28;20376;-74
2023/07/30 08:29:17;;;;;;;12.93;3.77;;;19.90;37.20;;;;;;5053629;28;20410;-74
2023/07/30 08:31:43;;;;;;;13.90;3.60;;;20.00;36.80;;;;;;5053692;28;20802;-76
2023/07/30 08:34:08;;;;;;;15.25;3.65;;;20.20;36.60;;;;;;5054006;28;20452;-74
2023/07/30 08:36:34;;;;;;;18.73;3.83;;;20.50;35.80;;;;;;5053919;28;20388;-74
2023/07/30 08:39:01;;;;;;;15.40;3.80;;;20.60;35.10;;;;;;5053843;28;20388;-74
2023/07/30 08:41:27;;;;;;;15.68;3.60;;;20.80;34.00;;;;;;5053602;28;20469;-74
2023/07/30 08:43:53;;;;;;;14.27;3.50;;;20.70;34.70;;;;;;5053582;28;20495;-74
2023/07/30 08:46:18;;;;;;;19.00;4.40;;;20.70;35.10;;;;;;5053688;28;20390;-73
2023/07/30 08:48:44;;;;;;;18.80;4.18;;;20.90;34.00;;;;;;5053344;28;20594;-74
2023/07/30 08:51:12;;;;;;;11.87;3.43;;;21.10;33.10;;;;;;5053406;28;20381;-75
2023/07/30 08:53:38;;;;;;;13.75;3.65;;;21.10;32.70;;;;;;5053441;28;20468;-73
2023/07/30 08:56:05;;;;;;;13.45;4.10;;;21.20;33.00;;;;;;5053500;28;20874;-73
2023/07/30 08:58:34;;;;;;;13.00;3.38;;;21.10;33.60;;;;;;5053204;28;20432;-74
2023/07/30 09:01:06;;;;;;;22.70;3.90;;;21.00;33.80;;;;;;5052789;28;20385;-73
2023/07/30 09:03:34;;;;;;;11.90;3.70;;;20.80;33.60;;;;;;5052562;28;20475;-74
2023/07/30 09:05:59;;;;;;;11.77;2.90;;;20.60;33.00;;;;;;5053143;28;20867;-73
2023/07/30 09:08:25;;;;;;;14.47;3.60;;;20.40;33.60;;;;;;5052850;28;20406;-73
2023/07/30 09:10:51;;;;;;;13.43;3.67;;;20.40;33.80;;;;;;5034986;28;20397;-75
2023/07/30 09:13:23;;;;;;;13.67;3.50;;;20.70;33.00;;;;;;5053170;28;20373;-73
2023/07/30 09:15:50;;;;;;;14.98;3.58;;;20.90;32.00;;;;;;5053110;28;20377;-73
2023/07/30 09:18:17;;;;;;;14.07;3.22;;;21.10;31.70;;;;;;5053024;28;20909;-75
2023/07/30 09:20:42;;;;;;;18.52;3.95;;;21.30;30.80;;;;;;5052783;28;20392;-74
2023/07/30 09:23:09;;;;;;;14.77;3.20;;;21.10;31.10;;;;;;5052845;28;20382;-75
2023/07/30 09:25:35;;;;;;;13.85;3.33;;;20.70;31.20;;;;;;5035330;28;20389;-76
2023/07/30 09:28:01;;;;;;;11.82;3.00;;;20.40;33.60;;;;;;5053047;28;20386;-75
2023/07/30 09:30:27;;;;;;;17.33;3.40;;;20.20;34.00;;;;;;5053178;28;20440;-75
2023/07/30 09:32:54;;;;;;;15.98;3.50;;;20.20;34.20;;;;;;5052507;28;20499;-75
2023/07/30 09:35:21;;;;;;;14.00;3.40;;;20.30;33.70;;;;;;5052833;28;20381;-73
2023/07/30 09:37:47;;;;;;;15.82;3.30;;;20.70;32.60;;;;;;5052669;28;20419;-74
2023/07/30 09:40:16;;;;;;;10.55;2.80;;;20.90;31.40;;;;;;5052753;28;20381;-74
2023/07/30 09:42:46;;;;;;;14.18;3.30;;;21.10;30.20;;;;;;5052613;28;20390;-74
2023/07/30 09:45:23;;;;;;;16.95;3.22;;;21.10;30.10;;;;;;5052918;28;20465;-75
2023/07/30 09:47:50;;;;;;;9.40;3.00;;;21.10;28.50;;;;;;5052576;28;20858;-74
2023/07/30 09:50:16;;;;;;;10.18;3.00;;;21.10;29.60;;;;;;5052532;28;20420;-75
2023/07/30 09:52:43;;;;;;;10.10;2.85;;;21.20;30.50;;;;;;5052366;28;20862;-74
2023/07/30 09:55:09;;;;;;;9.15;2.83;;;21.40;28.90;;;;;;5052609;28;20392;-73
2023/07/30 09:57:35;;;;;;;10.93;3.10;;;21.80;27.90;;;;;;5034403;28;20409;-74
2023/07/30 10:00:03;;;;;;;11.90;2.88;;;22.20;26.20;;;;;;5052834;28;20381;-74
2023/07/30 10:02:31;;;;;;;10.32;3.10;;;22.30;26.50;;;;;;5052725;28;20382;-73
2023/07/30 10:04:58;;;;;;;11.40;3.10;;;22.30;25.20;;;;;;5053034;28;20742;-74
2023/07/30 10:07:26;;;;;;;13.55;2.88;;;21.90;26.90;;;;;;5052317;28;20751;-74
2023/07/30 10:09:58;;;;;;;10.73;2.70;;;21.90;25.30;;;;;;5034756;28;20412;-74
2023/07/30 10:12:30;;;;;;;9.60;2.90;;;22.00;24.70;;;;;;5052989;28;20797;-75
2023/07/30 10:14:56;;;;;;;8.32;2.70;;;22.10;25.90;;;;;;5053714;28;20382;-74
2023/07/30 10:17:21;;;;;;;13.55;3.08;;;22.20;25.30;;;;;;5054644;28;20397;-75
2023/07/30 10:19:49;;;;;;;9.90;2.60;;;22.60;24.50;;;;;;5057780;28;20530;-73
2023/07/30 10:22:17;;;;;;;8.70;2.50;;;23.10;23.00;;;;;;5057311;28;20427;-75
2023/07/30 10:25:00;;;;;;;9.68;2.50;;;23.70;21.80;;;;;;5056723;28;20373;-74
2023/07/30 10:27:36;;;;;;;10.02;3.15;;;23.50;21.00;;;;;;5055148;28;20477;-75
2023/07/30 10:30:11;;;;;;;13.75;2.75;;;23.60;21.30;;;;;;5055043;28;20902;-76
2023/07/30 10:32:55;;;;;;;9.60;2.70;;;23.40;20.80;;;;;;5053099;28;20499;-77
2023/07/30 10:35:42;;;;;;;8.13;2.70;;;23.40;22.10;;;;;;5053556;28;20385;-75
2023/07/30 10:38:30;;;;;;;11.15;2.85;;;23.50;20.50;;;;;;5034802;28;20381;-76
2023/07/30 10:41:09;;;;;;;9.50;2.80;;;23.50;21.50;;;;;;5054752;28;20400;-75
2023/07/30 10:43:43;;;;;;;14.70;2.88;;;23.30;22.20;;;;;;5055305;28;20381;-75
2023/07/30 10:46:11;;;;;;;9.32;2.67;;;23.20;22.30;;;;;;5055105;28;20443;-75
2023/07/30 10:48:38;;;;;;;12.88;2.60;;;23.30;21.00;;;;;;5054440;28;20436;-74
2023/07/30 10:51:09;;;;;;;8.68;2.40;;;23.20;20.70;;;;;;5055783;28;20401;-74
2023/07/30 10:53:39;;;;;;;12.43;2.60;;;23.60;18.90;;;;;;5054297;28;20846;-74
2023/07/30 10:56:06;;;;;;;13.18;2.72;;;23.50;19.10;;;;;;5054288;28;20739;-74
2023/07/30 10:58:34;;;;;;;7.00;2.10;;;23.20;19.50;;;;;;5052443;28;20468;-75
2023/07/30 11:01:03;;;;;;;10.75;2.50;;;23.00;20.10;;;;;;5051573;28;20390;-75
2023/07/30 11:03:29;;;;;;;6.72;2.47;;;23.00;19.50;;;;;;5051115;28;20392;-74
2023/07/30 11:05:55;;;;;;;8.23;2.10;;;23.20;20.00;;;;;;5051082;28;20723;-75
2023/07/30 11:08:41;;;;;;;8.23;2.25;;;23.30;19.10;;;;;;5050674;28;20409;-74
2023/07/30 11:11:08;;;;;;;9.77;2.47;;;23.30;18.90;;;;;;5050732;28;20770;-75
2023/07/30 11:13:39;;;;;;;12.50;2.60;;;23.20;19.60;;;;;;5051269;28;20390;-74
2023/07/30 11:16:07;;;;;;;7.85;2.00;;;23.20;20.00;;;;;;5050900;28;20417;-73
2023/07/30 11:18:35;;;;;;;7.13;2.50;;;23.30;19.50;;;;;;5050544;28;20484;-73
2023/07/30 11:21:04;;;;;;;8.38;2.10;;;23.50;19.60;;;;;;5051030;28;20392;-74
2023/07/30 11:23:30;;;;;;;7.65;2.10;;;23.80;17.90;;;;;;5050488;28;20803;-74
2023/07/30 11:25:55;;;;;;;6.63;2.20;;;23.90;17.70;;;;;;5050682;28;20491;-73
2023/07/30 11:28:29;;;;;;;7.88;2.30;;;24.00;17.50;;;;;;5050578;28;20397;-73
2023/07/30 11:30:55;;;;;;;7.80;1.90;;;23.80;17.80;;;;;;5050427;28;20439;-76
2023/07/30 11:33:21;;;;;;;8.13;2.00;;;23.40;18.20;;;;;;5050398;28;20405;-76
2023/07/30 11:35:47;;;;;;;10.98;2.40;;;23.30;19.10;;;;;;5050473;28;20429;-74
2023/07/30 11:38:13;;;;;;;6.97;1.93;;;23.50;18.60;;;;;;5050391;28;20758;-74
2023/07/30 11:40:40;;;;;;;10.27;2.28;;;23.70;18.30;;;;;;5050733;28;20731;-75
2023/07/30 11:43:05;;;;;;;10.57;2.45;;;23.90;19.00;;;;;;5052948;28;20715;-75
2023/07/30 11:45:31;;;;;;;5.05;1.77;;;24.00;17.90;;;;;;5053102;28;20455;-75
2023/07/30 11:48:17;;;;;;;8.50;2.20;;;23.70;18.10;;;;;;5051186;28;20377;-75
2023/07/30 11:50:50;;;;;;;8.68;2.00;;;23.70;19.10;;;;;;5050482;28;20750;-74
2023/07/30 11:53:17;;;;;;;8.38;2.13;;;24.00;17.90;;;;;;5032871;28;20379;-74
2023/07/30 11:55:44;;;;;;;6.60;1.88;;;24.10;17.70;;;;;;5032566;28;20386;-74
2023/07/30 11:58:11;;;;;;;11.32;2.00;;;23.90;17.90;;;;;;5050598;28;20803;-76
2023/07/30 12:00:38;;;;;;;8.65;1.92;;;23.70;18.30;;;;;;5050121;28;20479;-73
2023/07/30 12:03:07;;;;;;;11.35;1.90;;;23.60;18.40;;;;;;5032851;28;20448;-74
2023/07/30 12:05:36;;;;;;;6.53;2.10;;;23.70;19.40;;;;;;5050549;28;20738;-72
2023/07/30 12:08:03;;;;;;;7.15;2.10;;;23.80;19.20;;;;;;5049961;28;20762;-74
2023/07/30 12:10:47;;;;;;;6.38;2.20;;;23.60;19.10;;;;;;5050306;28;20385;-77
2023/07/30 12:13:17;;;;;;;8.13;1.90;;;23.40;19.10;;;;;;5050412;28;20746;-74
2023/07/30 12:15:52;;;;;;;5.82;1.50;;;23.20;19.90;;;;;;5050517;28;20378;-75
2023/07/30 12:18:19;;;;;;;6.25;2.20;;;23.20;19.80;;;;;;5050440;28;20386;-75
2023/07/30 12:20:45;;;;;;;8.60;1.63;;;23.00;19.00;;;;;;5050374;28;20716;-75
2023/07/30 12:23:10;;;;;;;5.10;1.60;;;23.00;19.40;;;;;;5050508;28;20468;-73
2023/07/30 12:25:36;;;;;;;5.13;1.30;;;23.00;18.90;;;;;;5051255;28;20391;-75
2023/07/30 12:28:02;;;;;;;3.97;1.50;;;23.30;17.60;;;;;;5050734;28;20421;-75
2023/07/30 12:30:28;;;;;;;7.70;1.20;;;23.20;17.60;;;;;;5049865;28;20467;-74
2023/07/30 12:32:54;;;;;;;7.53;1.90;;;23.10;17.10;;;;;;5049813;28;20582;-74
2023/07/30 12:35:19;;;;;;;4.05;1.13;;;23.00;17.10;;;;;;5050349;28;20735;-75
2023/07/30 12:37:45;;;;;;;3.80;1.33;;;23.40;16.80;;;;;;5050524;28;20377;-74